createdAt,value
2022-10-22T00:01:44.329Z,6.12
2022-10-22T00:04:50.671Z,6.14
2022-10-22T00:07:52.470Z,6.16
2022-10-22T00:10:54.729Z,6.15
2022-10-22T00:13:58.130Z,6.14
2022-10-22T00:17:01.400Z,6.13
2022-10-22T00:20:04.578Z,6.16
2022-10-22T00:23:07.019Z,6.19
2022-10-22T00:26:08.967Z,6.22
2022-10-22T00:29:10.831Z,6.25
2022-10-22T00:32:12.901Z,6.29
2022-10-22T00:35:14.673Z,6.33
2022-10-22T00:38:16.394Z,6.34
2022-10-22T00:41:18.178Z,6.35
2022-10-22T00:44:57.774Z,6.37
2022-10-22T00:48:02.603Z,6.37
2022-10-22T00:51:06.751Z,6.33
2022-10-22T00:54:09.171Z,6.23
2022-10-22T00:57:10.961Z,6.14
2022-10-22T01:00:13.114Z,6.15
2022-10-22T01:03:15.379Z,6.15
2022-10-22T01:06:25.441Z,6.14
2022-10-22T01:09:52.407Z,6.16
2022-10-22T01:13:00.411Z,6.13
2022-10-22T01:16:12.021Z,6.08
2022-10-22T01:19:26.296Z,6.03
2022-10-22T01:22:44.716Z,6.02
2022-10-22T01:26:05.426Z,6.02
2022-10-22T01:29:16.487Z,6.08
2022-10-22T01:32:23.914Z,6.11
2022-10-22T01:35:29.224Z,6.10
2022-10-22T01:38:31.426Z,6.13
2022-10-22T01:41:34.830Z,6.17
2022-10-22T01:44:37.635Z,6.19
2022-10-22T01:47:53.918Z,6.22
2022-10-22T01:50:58.557Z,6.24
2022-10-22T01:54:07.048Z,6.22
2022-10-22T01:57:08.719Z,6.11
2022-10-22T02:00:12.683Z,6.03
2022-10-22T02:03:21.343Z,6.04
2022-10-22T02:06:26.106Z,6.03
2022-10-22T02:09:29.207Z,6.05
2022-10-22T02:12:32.698Z,6.01
2022-10-22T02:15:36.273Z,5.96
2022-10-22T02:18:40.789Z,5.90
2022-10-22T02:21:42.927Z,5.82
2022-10-22T02:24:45.018Z,5.74
2022-10-22T02:27:49.882Z,5.66
2022-10-22T02:31:02.091Z,5.58
2022-10-22T02:34:10.234Z,5.56
2022-10-22T02:37:12.832Z,5.53
2022-10-22T02:40:14.726Z,5.46
2022-10-22T02:43:18.473Z,5.39
2022-10-22T02:46:20.246Z,5.30
2022-10-22T02:49:22.074Z,5.20
2022-10-22T02:52:23.850Z,5.14
2022-10-22T02:55:25.619Z,5.08
2022-10-22T02:58:27.352Z,4.99
2022-10-22T03:01:29.247Z,4.92
2022-10-22T03:04:31.157Z,4.89
2022-10-22T03:07:33.630Z,4.87
2022-10-22T03:10:35.440Z,4.80
2022-10-22T03:13:37.932Z,4.74
2022-10-22T03:16:39.698Z,4.67
2022-10-22T03:19:42.259Z,4.60
2022-10-22T03:22:45.116Z,4.52
2022-10-22T03:25:48.486Z,4.46
2022-10-22T03:28:50.362Z,4.39
2022-10-22T03:31:52.842Z,4.32
2022-10-22T03:34:54.686Z,4.29
2022-10-22T03:37:56.547Z,4.27
2022-10-22T03:40:58.639Z,4.26
2022-10-22T03:44:02.135Z,4.22
2022-10-22T03:47:04.398Z,4.13
2022-10-22T03:50:06.925Z,4.02
2022-10-22T03:53:10.840Z,3.99
2022-10-22T03:56:13.502Z,3.92
2022-10-22T03:59:15.541Z,3.86
2022-10-22T04:02:17.372Z,3.78
2022-10-22T04:05:19.115Z,3.67
2022-10-22T04:08:20.828Z,3.62
2022-10-22T04:11:22.433Z,3.48
2022-10-22T04:14:24.311Z,3.42
2022-10-22T04:17:26.078Z,3.44
2022-10-22T04:20:27.686Z,3.41
2022-10-22T04:23:29.496Z,3.42
2022-10-22T04:26:31.321Z,3.39
2022-10-22T04:29:33.186Z,3.38
2022-10-22T04:32:34.940Z,3.35
2022-10-22T04:35:39.928Z,3.36
2022-10-22T04:38:43.003Z,3.39
2022-10-22T04:41:44.772Z,3.45
2022-10-22T04:44:46.649Z,3.51
2022-10-22T04:47:48.411Z,3.60
2022-10-22T04:50:50.303Z,3.54
2022-10-22T04:53:52.246Z,3.47
2022-10-22T04:56:53.946Z,3.43
2022-10-22T04:59:55.724Z,3.41
2022-10-22T05:02:57.406Z,3.38
2022-10-22T05:06:01.134Z,3.34
2022-10-22T05:09:08.832Z,3.30
2022-10-22T05:12:10.666Z,3.27
2022-10-22T05:15:12.272Z,3.25
2022-10-22T05:18:15.867Z,3.24
2022-10-22T05:21:19.951Z,3.22
2022-10-22T05:24:22.175Z,3.21
2022-10-22T05:27:23.858Z,3.18
2022-10-22T05:30:25.484Z,3.17
2022-10-22T05:33:29.083Z,3.15
2022-10-22T05:36:30.930Z,3.10
2022-10-22T05:39:36.937Z,3.00
2022-10-22T05:42:39.050Z,2.87
2022-10-22T05:45:42.421Z,2.67
2022-10-22T05:48:44.791Z,2.54
2022-10-22T05:51:47.169Z,2.51
2022-10-22T05:54:48.930Z,2.56
2022-10-22T05:57:50.735Z,2.71
2022-10-22T06:00:52.511Z,2.80
2022-10-22T06:04:01.981Z,2.84
2022-10-22T06:07:03.994Z,3.16
2022-10-22T06:10:06.788Z,3.79
2022-10-22T06:13:08.610Z,4.44
2022-10-22T06:16:10.673Z,4.59
2022-10-22T06:19:16.915Z,4.49
2022-10-22T06:22:18.711Z,4.45
2022-10-22T06:25:20.515Z,4.53
2022-10-22T06:31:25.940Z,4.83
2022-10-22T06:34:27.701Z,5.01
2022-10-22T06:37:29.407Z,5.32
2022-10-22T06:40:31.300Z,5.60
2022-10-22T06:43:33.106Z,5.73
2022-10-22T06:46:34.887Z,5.91
2022-10-22T06:49:36.928Z,6.01
2022-10-22T06:52:38.787Z,6.13
2022-10-22T06:55:40.589Z,6.24
2022-10-22T06:58:42.431Z,6.45
2022-10-22T07:01:44.408Z,6.64
2022-10-22T07:04:46.347Z,6.88
2022-10-22T07:07:48.168Z,7.11
2022-10-22T07:10:49.961Z,7.36
2022-10-22T07:13:53.963Z,7.63
2022-10-22T07:16:55.973Z,7.88
2022-10-22T07:19:58.899Z,7.99
2022-10-22T07:23:00.633Z,8.29
2022-10-22T07:26:02.968Z,8.73
2022-10-22T07:29:05.152Z,8.81
2022-10-22T07:32:06.995Z,8.73
2022-10-22T07:35:09.140Z,8.66
2022-10-22T07:38:10.899Z,8.59
2022-10-22T07:41:13.734Z,8.58
2022-10-22T07:44:15.554Z,8.47
2022-10-22T07:47:17.342Z,8.51
2022-10-22T07:50:19.409Z,8.51
2022-10-22T07:53:24.307Z,8.60
2022-10-22T07:56:26.061Z,8.74
2022-10-22T07:59:27.860Z,8.83
2022-10-22T08:02:29.591Z,8.88
2022-10-22T08:05:31.416Z,8.79
2022-10-22T08:08:33.671Z,8.78
2022-10-22T08:11:35.480Z,8.88
2022-10-22T08:14:37.257Z,8.97
2022-10-22T08:17:39.237Z,9.03
2022-10-22T08:20:42.412Z,9.17
2022-10-22T08:23:44.196Z,9.47
2022-10-22T08:26:46.308Z,9.84
2022-10-22T08:29:48.371Z,10.24
2022-10-22T08:32:53.086Z,10.59
2022-10-22T08:35:56.633Z,10.86
2022-10-22T08:38:58.356Z,11.15
2022-10-22T08:42:25.306Z,11.47
2022-10-22T08:45:52.510Z,11.82
2022-10-22T08:48:56.378Z,11.84
2022-10-22T08:51:58.727Z,12.01
2022-10-22T08:55:02.335Z,12.12
2022-10-22T08:58:19.057Z,12.00
2022-10-22T09:01:37.268Z,11.92
2022-10-22T09:04:48.970Z,12.11
2022-10-22T09:07:50.942Z,12.22
2022-10-22T09:11:06.180Z,12.05
2022-10-22T09:17:34.124Z,11.96
2022-10-22T09:20:44.582Z,11.87
2022-10-22T09:24:03.575Z,11.84
2022-10-22T09:27:15.947Z,11.86
2022-10-22T09:30:20.443Z,11.97
2022-10-22T09:33:27.617Z,12.22
2022-10-22T09:36:30.110Z,12.34
2022-10-22T09:39:34.830Z,12.47
2022-10-22T09:42:36.481Z,12.59
2022-10-22T09:45:38.171Z,12.62
2022-10-22T09:48:42.310Z,12.58
2022-10-22T09:51:57.701Z,12.72
2022-10-22T09:55:02.661Z,12.94
2022-10-22T09:58:04.934Z,12.94
2022-10-22T10:01:06.746Z,13.12
2022-10-22T10:04:14.619Z,13.35
2022-10-22T10:07:19.659Z,13.63
2022-10-22T10:10:50.804Z,13.77
2022-10-22T10:14:06.956Z,13.83
2022-10-22T10:17:27.563Z,13.88
2022-10-22T10:20:59.104Z,13.80
2022-10-22T10:24:03.940Z,13.69
2022-10-22T10:27:30.034Z,13.57
2022-10-22T10:30:32.845Z,13.50
2022-10-22T10:33:47.400Z,13.45
2022-10-22T10:36:59.860Z,13.44
2022-10-22T10:40:17.129Z,13.42
2022-10-22T10:43:40.325Z,13.41
2022-10-22T10:46:50.462Z,13.37
2022-10-22T10:49:54.987Z,13.27
2022-10-22T10:52:56.912Z,13.18
2022-10-22T10:56:02.942Z,13.13
2022-10-22T10:59:18.787Z,13.08
2022-10-22T11:02:48.405Z,13.06
2022-10-22T11:05:54.579Z,12.98
2022-10-22T11:09:01.251Z,12.89
2022-10-22T11:12:07.467Z,12.81
2022-10-22T11:15:16.830Z,12.74
2022-10-22T11:18:32.683Z,12.70
2022-10-22T11:21:42.174Z,12.66
2022-10-22T11:24:50.888Z,12.62
2022-10-22T11:28:03.174Z,12.54
2022-10-22T11:31:16.082Z,12.44
2022-10-22T11:34:33.835Z,12.33
2022-10-22T11:37:39.295Z,12.24
2022-10-22T11:40:48.797Z,12.16
2022-10-22T11:43:59.040Z,12.10
2022-10-22T11:47:24.497Z,12.02
2022-10-22T11:50:27.786Z,11.91
2022-10-22T11:53:37.766Z,11.84
2022-10-22T11:56:39.590Z,11.78
2022-10-22T11:59:49.770Z,11.75
2022-10-22T12:03:15.959Z,11.71
2022-10-22T12:06:21.795Z,11.67
2022-10-22T12:09:26.944Z,11.62
2022-10-22T12:12:36.202Z,11.56
2022-10-22T12:15:46.940Z,11.51
2022-10-22T12:18:49.146Z,11.45
2022-10-22T12:22:07.705Z,11.41
2022-10-22T12:25:18.250Z,11.37
2022-10-22T12:28:20.127Z,11.33
2022-10-22T12:31:21.940Z,11.28
2022-10-22T12:34:25.249Z,11.25
2022-10-22T12:37:29.635Z,11.24
2022-10-22T12:40:35.234Z,11.20
2022-10-22T12:43:39.660Z,11.13
2022-10-22T12:46:42.381Z,11.08
2022-10-22T12:49:48.715Z,11.02
2022-10-22T12:52:50.723Z,10.86
2022-10-22T12:55:54.492Z,10.68
2022-10-22T12:59:02.258Z,10.61
2022-10-22T13:02:22.920Z,10.59
2022-10-22T13:05:28.132Z,10.58
2022-10-22T13:08:29.969Z,10.57
2022-10-22T13:11:34.987Z,10.56
2022-10-22T13:14:38.644Z,10.55
2022-10-22T13:17:42.461Z,10.53
2022-10-22T13:21:01.830Z,10.50
2022-10-22T13:24:20.385Z,10.44
2022-10-22T13:27:23.757Z,10.39
2022-10-22T13:30:27.956Z,10.39
2022-10-22T13:33:33.777Z,10.43
2022-10-22T13:36:35.973Z,10.47
2022-10-22T13:39:37.792Z,10.48
2022-10-22T13:42:40.187Z,10.50
2022-10-22T13:45:44.727Z,10.51
2022-10-22T13:48:48.258Z,10.51
2022-10-22T13:51:51.508Z,10.53
2022-10-22T13:54:53.389Z,10.54
2022-10-22T13:58:10.215Z,10.53
2022-10-22T14:01:27.929Z,10.53
2022-10-22T14:04:29.883Z,10.51
2022-10-22T14:07:31.690Z,10.51
2022-10-22T14:10:33.517Z,10.49
2022-10-22T14:13:35.433Z,10.49
2022-10-22T14:16:37.698Z,10.48
2022-10-22T14:19:39.616Z,10.46
2022-10-22T14:22:41.515Z,10.40
2022-10-22T14:25:43.241Z,10.34
2022-10-22T14:29:07.961Z,10.30
2022-10-22T14:32:15.141Z,10.26
2022-10-22T14:35:20.516Z,10.21
2022-10-22T14:38:22.654Z,10.23
2022-10-22T14:41:26.141Z,10.25
2022-10-22T14:44:27.838Z,10.28
2022-10-22T14:47:29.802Z,10.29
2022-10-22T14:50:31.607Z,10.30
2022-10-22T14:53:33.640Z,10.31
2022-10-22T14:59:43.068Z,10.32
2022-10-22T15:02:45.412Z,10.30
2022-10-22T15:05:47.330Z,10.29
2022-10-22T15:08:49.317Z,10.30
2022-10-22T15:11:51.434Z,10.30
2022-10-22T15:14:53.309Z,10.28
2022-10-22T15:17:54.998Z,10.26
2022-10-22T15:20:57.557Z,10.23
2022-10-22T15:24:01.165Z,10.21
2022-10-22T15:27:03.612Z,10.18
2022-10-22T15:30:07.334Z,10.16
2022-10-22T15:33:09.171Z,10.14
2022-10-22T15:36:16.210Z,10.11
2022-10-22T15:39:18.577Z,10.08
2022-10-22T15:42:20.434Z,10.05
2022-10-22T15:45:24.430Z,10.04
2022-10-22T15:48:26.199Z,10.02
2022-10-22T15:51:28.044Z,10.00
2022-10-22T15:54:30.655Z,9.99
2022-10-22T15:57:33.201Z,9.99
2022-10-22T16:00:35.037Z,9.98
2022-10-22T16:03:37.272Z,9.98
2022-10-22T16:06:45.675Z,9.97
2022-10-22T16:09:48.481Z,9.97
2022-10-22T16:12:51.762Z,9.98
2022-10-22T16:15:56.399Z,9.99
2022-10-22T16:18:58.479Z,9.96
2022-10-22T16:22:02.197Z,9.95
2022-10-22T16:25:04.245Z,9.95
2022-10-22T16:28:06.815Z,9.94
2022-10-22T16:31:12.173Z,9.93
2022-10-22T16:34:13.925Z,9.93
2022-10-22T16:37:16.078Z,9.94
2022-10-22T16:40:18.001Z,9.93
2022-10-22T16:43:19.966Z,9.93
2022-10-22T16:46:22.695Z,9.92
2022-10-22T16:49:24.644Z,9.91
2022-10-22T16:52:26.785Z,9.90
2022-10-22T16:55:28.486Z,9.90
2022-10-22T16:58:30.663Z,9.90
2022-10-22T17:01:36.726Z,9.90
2022-10-22T17:04:41.595Z,9.89
2022-10-22T17:07:43.267Z,9.89
2022-10-22T17:10:45.062Z,9.87
2022-10-22T17:13:49.094Z,9.87
2022-10-22T17:16:53.878Z,9.89
2022-10-22T17:19:55.619Z,9.89
2022-10-22T17:22:57.596Z,9.89
2022-10-22T17:26:01.862Z,9.89
2022-10-22T17:29:04.571Z,9.90
2022-10-22T17:32:06.472Z,9.90
2022-10-22T17:35:08.772Z,9.91
2022-10-22T17:38:10.532Z,9.92
2022-10-22T17:41:17.994Z,9.90
2022-10-22T17:44:19.742Z,9.90
2022-10-22T17:47:22.299Z,9.90
2022-10-22T17:50:24.051Z,9.88
2022-10-22T17:53:25.764Z,9.86
2022-10-22T17:56:30.023Z,9.87
2022-10-22T17:59:32.676Z,9.90
2022-10-22T18:02:34.631Z,9.93
2022-10-22T18:05:36.280Z,9.98
2022-10-22T18:08:38.045Z,10.06
2022-10-22T18:11:40.167Z,10.06
2022-10-22T18:14:41.859Z,10.08
2022-10-22T18:17:44.046Z,10.11
2022-10-22T18:20:50.833Z,10.20
2022-10-22T18:23:53.117Z,10.22
2022-10-22T18:26:55.395Z,10.27
2022-10-22T18:29:57.474Z,10.31
2022-10-22T18:32:59.237Z,10.33
2022-10-22T18:36:06.795Z,10.34
2022-10-22T18:39:08.800Z,10.34
2022-10-22T18:42:10.587Z,10.37
2022-10-22T18:45:12.362Z,10.44
2022-10-22T18:48:18.189Z,10.46
2022-10-22T18:51:20.151Z,10.48
2022-10-22T18:54:23.627Z,10.52
2022-10-22T18:57:26.130Z,10.52
2022-10-22T19:00:27.901Z,10.52
2022-10-22T19:03:29.559Z,10.55
2022-10-22T19:06:35.713Z,10.59
2022-10-22T19:09:37.614Z,10.59
2022-10-22T19:12:39.411Z,10.61
2022-10-22T19:15:41.285Z,10.65
2022-10-22T19:18:43.009Z,10.64
2022-10-22T19:21:45.300Z,10.66
2022-10-22T19:24:49.535Z,10.69
2022-10-22T19:27:51.471Z,10.69
2022-10-22T19:30:54.716Z,10.71
2022-10-22T19:33:56.935Z,10.71
2022-10-22T19:36:59.052Z,10.68
2022-10-22T19:40:00.909Z,10.71
2022-10-22T19:43:02.655Z,10.71
2022-10-22T19:46:05.946Z,10.66
2022-10-22T19:49:07.770Z,10.67
2022-10-22T19:52:09.624Z,10.65
2022-10-22T19:55:11.595Z,10.62
2022-10-22T19:58:14.036Z,10.60
2022-10-22T20:01:17.569Z,10.63
2022-10-22T20:04:19.723Z,10.61
2022-10-22T20:07:22.574Z,10.59
2022-10-22T20:10:24.333Z,10.63
2022-10-22T20:13:26.278Z,10.64
2022-10-22T20:16:30.266Z,10.62
2022-10-22T20:19:32.822Z,10.65
2022-10-22T20:22:34.484Z,10.67
2022-10-22T20:25:41.590Z,10.64
2022-10-22T20:28:43.370Z,10.64
2022-10-22T20:31:45.746Z,10.63
2022-10-22T20:34:47.592Z,10.61
2022-10-22T20:37:49.800Z,10.69
2022-10-22T20:40:59.834Z,10.79
2022-10-22T20:44:02.082Z,10.83
2022-10-22T20:47:06.601Z,10.86
2022-10-22T20:50:09.746Z,10.88
2022-10-22T20:53:13.497Z,10.89
2022-10-22T20:56:18.852Z,10.89
2022-10-22T20:59:24.254Z,10.88
2022-10-22T21:02:28.158Z,10.88
2022-10-22T21:05:29.866Z,10.88
2022-10-22T21:08:32.247Z,10.89
2022-10-22T21:11:35.102Z,10.89
2022-10-22T21:14:36.976Z,10.89
2022-10-22T21:17:40.441Z,10.90
2022-10-22T21:20:42.206Z,10.90
2022-10-22T21:23:44.101Z,10.91
2022-10-22T21:26:46.491Z,10.93
2022-10-22T21:29:48.177Z,10.94
2022-10-22T21:32:49.986Z,10.94
2022-10-22T21:35:53.541Z,10.95
2022-10-22T21:38:55.423Z,10.95
2022-10-22T21:41:57.131Z,10.95
2022-10-22T21:44:58.955Z,10.96
2022-10-22T21:48:00.819Z,10.98
2022-10-22T21:51:11.003Z,10.99
2022-10-22T21:54:13.152Z,11.00
2022-10-22T21:57:15.017Z,11.00
2022-10-22T22:00:20.766Z,11.00
2022-10-22T22:03:23.613Z,11.00
2022-10-22T22:06:29.543Z,11.02
2022-10-22T22:09:34.090Z,11.02
2022-10-22T22:12:36.402Z,11.04
2022-10-22T22:15:38.082Z,11.04
2022-10-22T22:18:41.015Z,11.03
2022-10-22T22:21:45.966Z,11.02
2022-10-22T22:24:47.830Z,11.02
2022-10-22T22:27:49.745Z,11.00
2022-10-22T22:30:51.725Z,10.99
2022-10-22T22:34:22.844Z,10.96
2022-10-22T22:37:24.663Z,10.94
2022-10-22T22:40:29.154Z,10.92
2022-10-22T22:43:32.562Z,10.92
2022-10-22T22:46:34.476Z,10.92
2022-10-22T22:49:37.038Z,10.91
2022-10-22T22:52:39.000Z,10.91
2022-10-22T22:55:41.061Z,10.91
2022-10-22T22:58:43.203Z,10.91
2022-10-22T23:01:48.023Z,10.90
2022-10-22T23:05:10.676Z,10.90
2022-10-22T23:08:26.531Z,10.89
2022-10-22T23:11:45.628Z,10.88
2022-10-22T23:14:51.476Z,10.89
2022-10-22T23:17:53.285Z,10.92
2022-10-22T23:20:55.039Z,10.96
2022-10-22T23:24:00.224Z,10.99
2022-10-22T23:27:04.108Z,11.00
2022-10-22T23:30:06.474Z,11.04
2022-10-22T23:33:12.230Z,11.09
2022-10-22T23:36:14.333Z,11.12
2022-10-22T23:39:19.737Z,11.15
2022-10-22T23:42:21.532Z,11.16
2022-10-22T23:45:23.357Z,11.17
2022-10-22T23:48:25.261Z,11.18
2022-10-22T23:51:27.544Z,11.21
2022-10-22T23:54:29.321Z,11.25
2022-10-22T23:57:31.082Z,11.30
